createdAt,value
2018-06-24T00:01:53.080Z,13.79
2018-06-24T00:04:21.404Z,13.78
2018-06-24T00:06:49.750Z,13.78
2018-06-24T00:09:18.072Z,13.80
2018-06-24T00:11:46.407Z,13.70
2018-06-24T00:14:14.764Z,13.71
2018-06-24T00:16:43.092Z,13.72
2018-06-24T00:19:11.423Z,13.73
2018-06-24T00:21:39.747Z,13.64
2018-06-24T00:24:08.095Z,13.66
2018-06-24T00:26:36.449Z,13.66
2018-06-24T00:29:04.826Z,13.64
2018-06-24T00:31:33.172Z,13.70
2018-06-24T00:34:01.521Z,13.65
2018-06-24T00:36:29.864Z,13.64
2018-06-24T00:38:58.203Z,13.63
2018-06-24T00:41:26.545Z,13.67
2018-06-24T00:43:54.898Z,13.67
2018-06-24T00:46:23.243Z,13.65
2018-06-24T00:48:51.587Z,13.67
2018-06-24T00:51:19.914Z,13.72
2018-06-24T00:53:48.266Z,13.70
2018-06-24T00:56:16.584Z,13.66
2018-06-24T00:58:44.936Z,13.65
2018-06-24T01:01:13.279Z,13.69
2018-06-24T01:03:41.736Z,13.60
2018-06-24T01:06:10.096Z,13.62
2018-06-24T01:08:38.446Z,13.61
2018-06-24T01:11:06.761Z,13.57
2018-06-24T01:13:35.095Z,13.58
2018-06-24T01:16:03.439Z,13.61
2018-06-24T01:18:31.794Z,13.58
2018-06-24T01:21:00.159Z,13.61
2018-06-24T01:23:28.503Z,13.56
2018-06-24T01:25:56.860Z,13.57
2018-06-24T01:28:25.209Z,13.56
2018-06-24T01:30:53.601Z,13.54
2018-06-24T01:33:21.932Z,13.58
2018-06-24T01:35:50.535Z,13.60
2018-06-24T01:38:18.861Z,13.60
2018-06-24T01:40:47.191Z,13.57
2018-06-24T01:43:15.511Z,13.60
2018-06-24T01:45:43.863Z,13.54
2018-06-24T01:48:12.214Z,13.55
2018-06-24T01:50:40.552Z,13.56
2018-06-24T01:53:08.880Z,13.53
2018-06-24T01:55:37.245Z,13.52
2018-06-24T01:58:05.656Z,13.51
2018-06-24T02:00:34.136Z,13.54
2018-06-24T02:03:02.468Z,13.51
2018-06-24T02:05:30.796Z,13.55
2018-06-24T02:07:59.122Z,13.49
2018-06-24T02:10:27.452Z,13.52
2018-06-24T02:12:55.827Z,13.50
2018-06-24T02:15:24.163Z,13.49
2018-06-24T02:17:52.485Z,13.47
2018-06-24T02:20:20.864Z,13.48
2018-06-24T02:22:49.208Z,13.48
2018-06-24T02:25:17.618Z,13.47
2018-06-24T02:27:45.984Z,13.51
2018-06-24T02:30:14.761Z,13.48
2018-06-24T02:32:43.169Z,13.48
2018-06-24T02:35:11.517Z,13.47
2018-06-24T02:37:39.852Z,13.48
2018-06-24T02:40:08.198Z,13.48
2018-06-24T02:42:36.567Z,13.48
2018-06-24T02:45:05.405Z,13.46
2018-06-24T02:47:33.745Z,13.46
2018-06-24T02:50:02.135Z,13.46
2018-06-24T02:52:30.474Z,13.45
2018-06-24T02:54:58.853Z,13.35
2018-06-24T02:57:27.236Z,13.44
2018-06-24T02:59:55.586Z,13.43
2018-06-24T03:02:24.027Z,13.37
2018-06-24T03:04:52.360Z,13.39
2018-06-24T03:07:20.712Z,13.36
2018-06-24T03:09:49.059Z,13.38
2018-06-24T03:12:17.374Z,13.38
2018-06-24T03:14:45.716Z,13.38
2018-06-24T03:17:14.127Z,13.38
2018-06-24T03:19:42.518Z,13.39
2018-06-24T03:22:11.029Z,13.36
2018-06-24T03:24:39.367Z,13.38
2018-06-24T03:27:07.718Z,13.34
2018-06-24T03:29:36.066Z,13.39
2018-06-24T03:32:04.467Z,13.39
2018-06-24T03:34:32.802Z,13.39
2018-06-24T03:37:01.159Z,13.33
2018-06-24T03:39:29.471Z,13.38
2018-06-24T03:41:57.803Z,13.37
2018-06-24T03:44:26.129Z,13.36
2018-06-24T03:46:54.477Z,13.38
2018-06-24T03:49:22.827Z,13.31
2018-06-24T03:51:51.169Z,13.32
2018-06-24T03:54:19.511Z,13.34
2018-06-24T03:56:47.814Z,13.36
2018-06-24T03:59:16.147Z,13.34
2018-06-24T04:01:44.471Z,13.35
2018-06-24T04:04:12.851Z,13.34
2018-06-24T04:06:41.187Z,13.37
2018-06-24T04:09:09.703Z,13.39
2018-06-24T04:11:38.065Z,13.42
2018-06-24T04:14:06.409Z,13.42
2018-06-24T04:16:35.320Z,13.47
2018-06-24T04:19:03.656Z,13.45
2018-06-24T04:21:31.993Z,13.48
2018-06-24T04:24:00.336Z,13.44
2018-06-24T04:26:28.677Z,13.50
2018-06-24T04:28:57.025Z,13.47
2018-06-24T04:31:25.368Z,13.48
2018-06-24T04:33:54.093Z,13.50
2018-06-24T04:36:22.437Z,13.53
2018-06-24T04:38:50.824Z,13.55
2018-06-24T04:41:19.167Z,13.53
2018-06-24T04:43:47.491Z,13.51
2018-06-24T04:46:16.643Z,13.54
2018-06-24T04:48:45.024Z,13.50
2018-06-24T04:51:13.364Z,13.52
2018-06-24T04:53:41.734Z,13.51
2018-06-24T04:56:10.070Z,13.50
2018-06-24T04:58:38.457Z,13.55
2018-06-24T05:01:06.798Z,13.50
2018-06-24T05:03:35.124Z,13.58
2018-06-24T05:06:03.493Z,13.55
2018-06-24T05:08:31.835Z,13.58
2018-06-24T05:11:00.214Z,13.55
2018-06-24T05:13:28.554Z,13.58
2018-06-24T05:15:56.915Z,13.54
2018-06-24T05:18:25.247Z,13.58
2018-06-24T05:20:53.588Z,13.62
2018-06-24T05:23:21.937Z,13.58
2018-06-24T05:25:50.316Z,13.61
2018-06-24T05:28:18.670Z,13.63
2018-06-24T05:30:47.021Z,13.61
2018-06-24T05:33:15.397Z,13.64
2018-06-24T05:35:43.732Z,13.59
2018-06-24T05:38:12.075Z,13.67
2018-06-24T05:40:40.400Z,13.67
2018-06-24T05:43:08.829Z,13.71
2018-06-24T05:45:37.140Z,13.69
2018-06-24T05:48:05.953Z,13.69
2018-06-24T05:50:34.313Z,13.68
2018-06-24T05:53:02.760Z,13.69
2018-06-24T05:55:31.100Z,13.69
2018-06-24T05:57:59.452Z,13.78
2018-06-24T06:00:27.828Z,13.77
2018-06-24T06:02:58.011Z,13.84
2018-06-24T06:05:26.431Z,13.77
2018-06-24T06:07:54.780Z,13.80
2018-06-24T06:10:23.230Z,13.83
2018-06-24T06:12:51.544Z,13.78
2018-06-24T06:15:19.891Z,13.88
2018-06-24T06:17:48.228Z,13.93
2018-06-24T06:20:16.575Z,13.89
2018-06-24T06:22:44.951Z,13.87
2018-06-24T06:25:13.291Z,13.78
2018-06-24T06:27:41.636Z,13.82
2018-06-24T06:30:10.054Z,13.87
2018-06-24T06:32:38.369Z,13.78
2018-06-24T06:35:06.743Z,13.71
2018-06-24T06:37:35.156Z,13.78
2018-06-24T06:40:03.599Z,13.83
2018-06-24T06:42:31.979Z,13.89
2018-06-24T06:45:00.488Z,13.89
2018-06-24T06:47:28.747Z,13.90
2018-06-24T06:49:57.081Z,13.99
2018-06-24T06:53:49.907Z,14.00
2018-06-24T06:56:18.312Z,14.07
2018-06-24T06:58:46.637Z,14.02
2018-06-24T07:01:14.995Z,14.06
2018-06-24T07:03:43.322Z,14.11
2018-06-24T07:06:11.655Z,14.04
2018-06-24T07:08:39.995Z,14.19
2018-06-24T07:11:08.352Z,14.18
2018-06-24T07:13:36.693Z,14.21
2018-06-24T07:16:05.251Z,14.23
2018-06-24T07:18:33.622Z,14.27
2018-06-24T07:21:01.972Z,14.30
2018-06-24T07:23:30.305Z,14.24
2018-06-24T07:25:58.730Z,14.23
2018-06-24T07:28:27.082Z,14.37
2018-06-24T07:30:55.430Z,14.41
2018-06-24T07:33:23.814Z,14.42
2018-06-24T07:35:52.133Z,14.45
2018-06-24T07:38:20.498Z,14.56
2018-06-24T07:40:48.857Z,14.59
2018-06-24T07:43:17.206Z,14.51
2018-06-24T07:45:45.545Z,14.58
2018-06-24T07:48:13.891Z,14.63
2018-06-24T07:50:42.257Z,14.53
2018-06-24T07:53:10.701Z,14.61
2018-06-24T07:55:39.100Z,14.63
2018-06-24T07:58:07.495Z,14.58
2018-06-24T08:00:35.835Z,14.61
2018-06-24T08:03:04.236Z,14.54
2018-06-24T08:05:32.620Z,14.59
2018-06-24T08:08:00.971Z,14.66
2018-06-24T08:10:29.320Z,14.65
2018-06-24T08:12:57.697Z,14.61
2018-06-24T08:15:26.399Z,14.59
2018-06-24T08:17:54.736Z,14.56
2018-06-24T08:20:23.098Z,14.52
2018-06-24T08:22:51.584Z,14.56
2018-06-24T08:25:19.991Z,14.41
2018-06-24T08:27:48.334Z,14.44
2018-06-24T08:30:16.647Z,14.39
2018-06-24T08:32:44.992Z,14.33
2018-06-24T08:35:13.331Z,14.34
2018-06-24T08:37:41.664Z,14.44
2018-06-24T08:40:10.025Z,14.49
2018-06-24T08:42:38.402Z,14.52
2018-06-24T08:45:07.141Z,14.58
2018-06-24T08:47:35.474Z,14.63
2018-06-24T08:50:03.897Z,14.66
2018-06-24T08:52:32.263Z,14.68
2018-06-24T08:55:00.611Z,14.71
2018-06-24T08:57:28.920Z,14.65
2018-06-24T08:59:57.240Z,14.70
2018-06-24T09:02:25.559Z,14.65
2018-06-24T09:04:53.896Z,14.77
2018-06-24T09:07:22.235Z,14.96
2018-06-24T09:09:50.578Z,15.00
2018-06-24T09:12:18.990Z,15.09
2018-06-24T09:14:47.313Z,15.16
2018-06-24T09:17:15.725Z,15.30
2018-06-24T09:19:44.104Z,15.32
2018-06-24T09:22:12.528Z,15.45
2018-06-24T09:24:40.897Z,15.51
2018-06-24T09:27:09.269Z,15.41
2018-06-24T09:29:37.642Z,15.49
2018-06-24T09:32:06.112Z,15.50
2018-06-24T09:34:34.458Z,15.53
2018-06-24T09:37:02.824Z,15.59
2018-06-24T09:39:31.142Z,15.69
2018-06-24T09:41:59.481Z,15.83
2018-06-24T09:44:27.832Z,15.82
2018-06-24T09:46:56.212Z,15.74
2018-06-24T09:49:24.546Z,15.89
2018-06-24T09:51:52.903Z,15.93
2018-06-24T09:54:21.239Z,15.92
2018-06-24T09:56:49.685Z,15.92
2018-06-24T09:59:18.059Z,15.91
2018-06-24T10:01:46.388Z,15.94
2018-06-24T10:04:14.716Z,15.97
2018-06-24T10:06:43.036Z,15.94
2018-06-24T10:09:11.957Z,16.02
2018-06-24T10:11:40.368Z,16.09
2018-06-24T10:14:08.791Z,16.16
2018-06-24T10:16:37.222Z,16.06
2018-06-24T10:19:05.679Z,16.16
2018-06-24T10:21:34.026Z,16.23
2018-06-24T10:24:02.405Z,16.24
2018-06-24T10:26:30.714Z,16.12
2018-06-24T10:28:59.062Z,16.06
2018-06-24T10:31:27.409Z,16.01
2018-06-24T10:33:55.781Z,16.04
2018-06-24T10:36:24.166Z,16.18
2018-06-24T10:38:52.527Z,16.00
2018-06-24T10:41:20.886Z,16.04
2018-06-24T10:43:49.735Z,16.13
2018-06-24T10:46:18.115Z,16.19
2018-06-24T10:48:46.467Z,16.30
2018-06-24T10:51:14.874Z,16.31
2018-06-24T10:53:43.229Z,16.49
2018-06-24T10:56:11.592Z,16.44
2018-06-24T10:58:39.983Z,16.40
2018-06-24T11:01:08.323Z,16.32
2018-06-24T11:03:36.701Z,16.26
2018-06-24T11:06:05.674Z,16.32
2018-06-24T11:08:34.014Z,16.27
2018-06-24T11:11:02.357Z,16.23
2018-06-24T11:13:30.806Z,16.29
2018-06-24T11:15:59.254Z,16.32
2018-06-24T11:18:27.668Z,16.35
2018-06-24T11:20:56.017Z,16.44
2018-06-24T11:23:24.497Z,16.36
2018-06-24T11:25:52.869Z,16.34
2018-06-24T11:28:21.370Z,16.47
2018-06-24T11:30:49.696Z,16.51
2018-06-24T11:33:18.080Z,16.52
2018-06-24T11:35:46.438Z,16.58
2018-06-24T11:38:14.783Z,16.56
2018-06-24T11:40:43.139Z,16.64
2018-06-24T11:43:11.492Z,16.78
2018-06-24T11:45:39.969Z,16.75
2018-06-24T11:48:08.314Z,16.76
2018-06-24T11:50:36.664Z,16.62
2018-06-24T11:53:05.163Z,16.70
2018-06-24T11:55:33.980Z,16.68
2018-06-24T11:58:02.349Z,16.77
2018-06-24T12:00:30.761Z,16.80
2018-06-24T12:02:59.106Z,16.70
2018-06-24T12:05:27.879Z,16.71
2018-06-24T12:07:56.241Z,16.78
2018-06-24T12:10:24.585Z,16.71
2018-06-24T12:12:52.932Z,16.70
2018-06-24T12:15:21.313Z,16.71
2018-06-24T12:17:49.657Z,16.76
2018-06-24T12:20:17.993Z,16.68
2018-06-24T12:22:46.326Z,16.68
2018-06-24T12:25:14.650Z,16.68
2018-06-24T12:27:43.030Z,16.76
2018-06-24T12:30:11.446Z,16.74
2018-06-24T12:32:40.137Z,16.64
2018-06-24T12:35:08.530Z,16.65
2018-06-24T12:37:36.933Z,16.76
2018-06-24T12:40:05.311Z,16.68
2018-06-24T12:42:33.687Z,16.72
2018-06-24T12:45:02.014Z,16.58
2018-06-24T12:47:30.472Z,16.41
2018-06-24T12:49:58.874Z,16.53
2018-06-24T12:52:28.023Z,16.44
2018-06-24T12:54:56.568Z,16.45
2018-06-24T12:57:24.960Z,16.43
2018-06-24T12:59:53.641Z,16.36
2018-06-24T13:02:21.697Z,16.47
2018-06-24T13:04:50.067Z,16.55
2018-06-24T13:07:18.440Z,16.59
2018-06-24T13:09:46.836Z,16.79
2018-06-24T13:12:15.190Z,16.85
2018-06-24T13:14:43.603Z,16.90
2018-06-24T13:17:12.022Z,16.85
2018-06-24T13:19:40.399Z,16.83
2018-06-24T13:22:08.743Z,16.91
2018-06-24T13:24:37.090Z,17.01
2018-06-24T13:27:05.504Z,16.80
2018-06-24T13:29:34.943Z,16.84
2018-06-24T13:32:03.352Z,16.91
2018-06-24T13:34:31.800Z,16.87
2018-06-24T13:37:00.353Z,16.81
2018-06-24T13:39:28.764Z,16.74
2018-06-24T13:41:57.305Z,16.71
2018-06-24T13:44:25.680Z,16.63
2018-06-24T13:46:54.126Z,16.70
2018-06-24T13:49:22.482Z,16.74
2018-06-24T13:51:50.834Z,16.77
2018-06-24T13:54:19.214Z,16.77
2018-06-24T13:56:47.572Z,16.68
2018-06-24T13:59:15.936Z,16.77
2018-06-24T14:01:44.303Z,16.71
2018-06-24T14:04:12.686Z,16.78
2018-06-24T14:06:41.190Z,16.83
2018-06-24T14:09:11.602Z,16.86
2018-06-24T14:11:39.994Z,17.05
2018-06-24T14:14:08.902Z,16.99
2018-06-24T14:16:37.285Z,16.99
2018-06-24T14:19:05.801Z,16.91
2018-06-24T14:21:34.175Z,16.88
2018-06-24T14:24:02.555Z,16.95
2018-06-24T14:26:30.904Z,16.90
2018-06-24T14:28:59.306Z,16.88
2018-06-24T14:31:27.602Z,17.05
2018-06-24T14:33:55.969Z,17.13
2018-06-24T14:36:24.357Z,17.16
2018-06-24T14:38:52.707Z,17.24
2018-06-24T14:41:21.051Z,17.19
2018-06-24T14:43:49.411Z,17.12
2018-06-24T14:46:17.787Z,17.16
2018-06-24T14:48:46.121Z,17.15
2018-06-24T14:51:14.456Z,17.16
2018-06-24T14:53:43.235Z,17.30
2018-06-24T14:56:11.587Z,17.43
2018-06-24T14:58:40.029Z,17.37
2018-06-24T15:01:08.385Z,17.37
2018-06-24T15:03:36.753Z,17.26
2018-06-24T15:06:05.141Z,17.27
2018-06-24T15:09:57.922Z,17.28
2018-06-24T15:12:26.287Z,17.20
2018-06-24T15:14:54.677Z,17.25
2018-06-24T15:17:23.039Z,17.31
2018-06-24T15:19:51.387Z,17.37
2018-06-24T15:22:19.766Z,17.29
2018-06-24T15:24:48.115Z,17.32
2018-06-24T15:27:16.475Z,17.32
2018-06-24T15:29:45.413Z,17.32
2018-06-24T15:32:13.824Z,17.49
2018-06-24T15:34:42.310Z,17.49
2018-06-24T15:37:10.708Z,17.37
2018-06-24T15:39:39.089Z,17.33
2018-06-24T15:42:07.455Z,17.25
2018-06-24T15:44:36.041Z,17.24
2018-06-24T15:47:04.478Z,17.16
2018-06-24T15:49:32.828Z,17.10
2018-06-24T15:52:01.151Z,17.07
2018-06-24T15:54:29.504Z,16.97
2018-06-24T15:56:57.843Z,16.95
2018-06-24T15:59:26.283Z,16.68
2018-06-24T16:01:54.621Z,16.62
2018-06-24T16:04:23.167Z,16.60
2018-06-24T16:06:51.737Z,16.54
2018-06-24T16:09:20.631Z,16.51
2018-06-24T16:11:48.961Z,16.43
2018-06-24T16:14:17.414Z,16.32
2018-06-24T16:16:45.779Z,16.28
2018-06-24T16:19:14.108Z,16.25
2018-06-24T16:21:42.472Z,16.12
2018-06-24T16:24:10.817Z,16.11
2018-06-24T16:26:39.201Z,16.17
2018-06-24T16:29:07.539Z,16.06
2018-06-24T16:31:35.887Z,16.04
2018-06-24T16:34:04.313Z,16.02
2018-06-24T16:36:32.659Z,16.00
2018-06-24T16:39:01.004Z,15.97
2018-06-24T16:41:29.415Z,15.95
2018-06-24T16:43:57.929Z,15.93
2018-06-24T16:46:26.264Z,15.88
2018-06-24T16:48:54.644Z,15.85
2018-06-24T16:51:23.178Z,15.82
2018-06-24T16:53:51.571Z,15.85
2018-06-24T16:56:19.941Z,15.89
2018-06-24T16:58:48.347Z,15.84
2018-06-24T17:01:16.735Z,15.88
2018-06-24T17:03:45.097Z,15.88
2018-06-24T17:06:13.471Z,15.87
2018-06-24T17:08:41.827Z,15.84
2018-06-24T17:11:10.171Z,15.77
2018-06-24T17:13:38.526Z,15.73
2018-06-24T17:16:06.921Z,15.69
2018-06-24T17:18:35.572Z,15.70
2018-06-24T17:21:03.918Z,15.67
2018-06-24T17:23:32.254Z,15.65
2018-06-24T17:26:00.686Z,15.65
2018-06-24T17:28:29.369Z,15.64
2018-06-24T17:30:57.748Z,15.64
2018-06-24T17:33:26.079Z,15.62
2018-06-24T17:35:54.431Z,15.57
2018-06-24T17:38:22.781Z,15.59
2018-06-24T17:40:51.131Z,15.50
2018-06-24T17:43:19.507Z,15.50
2018-06-24T17:45:47.923Z,15.50
2018-06-24T17:48:16.357Z,15.50
2018-06-24T17:50:44.735Z,15.40
2018-06-24T17:53:13.131Z,15.34
2018-06-24T17:55:41.556Z,15.32
2018-06-24T17:58:10.014Z,15.33
2018-06-24T18:00:38.397Z,15.28
2018-06-24T18:03:06.777Z,15.31
2018-06-24T18:05:35.362Z,15.34
2018-06-24T18:08:04.044Z,15.30
2018-06-24T18:10:32.384Z,15.31
2018-06-24T18:13:00.732Z,15.24
2018-06-24T18:15:29.098Z,15.22
2018-06-24T18:17:57.770Z,15.21
2018-06-24T18:20:26.887Z,15.16
2018-06-24T18:22:55.883Z,15.17
2018-06-24T18:25:24.260Z,15.15
2018-06-24T18:27:52.655Z,15.16
2018-06-24T18:30:21.097Z,15.13
2018-06-24T18:32:49.496Z,15.09
2018-06-24T18:35:18.295Z,15.08
2018-06-24T18:37:47.772Z,15.11
2018-06-24T18:40:16.111Z,15.06
2018-06-24T18:42:44.479Z,15.01
2018-06-24T18:45:12.874Z,14.98
2018-06-24T18:47:41.805Z,15.02
2018-06-24T18:50:10.215Z,14.97
2018-06-24T18:52:38.627Z,14.95
2018-06-24T18:55:07.647Z,14.93
2018-06-24T18:57:35.994Z,14.94
2018-06-24T19:00:05.044Z,14.91
2018-06-24T19:02:34.040Z,14.93
2018-06-24T19:05:02.368Z,14.92
2018-06-24T19:07:30.771Z,14.91
2018-06-24T19:09:59.122Z,14.89
2018-06-24T19:12:27.459Z,14.90
2018-06-24T19:14:55.883Z,14.89
2018-06-24T19:17:24.268Z,14.88
2018-06-24T19:19:52.635Z,14.86
2018-06-24T19:22:20.988Z,14.84
2018-06-24T19:26:13.778Z,14.83
2018-06-24T19:28:42.122Z,14.78
2018-06-24T19:31:10.537Z,14.77
2018-06-24T19:33:39.324Z,14.77
2018-06-24T19:36:07.729Z,14.75
2018-06-24T19:38:36.113Z,14.78
2018-06-24T19:41:04.455Z,14.78
2018-06-24T19:43:32.807Z,14.77
2018-06-24T19:46:01.175Z,14.76
2018-06-24T19:48:29.562Z,14.78
2018-06-24T19:50:57.899Z,14.76
2018-06-24T19:53:26.239Z,14.77
2018-06-24T19:55:54.591Z,14.77
2018-06-24T19:58:22.981Z,14.78
2018-06-24T20:00:51.345Z,14.71
2018-06-24T20:03:20.126Z,14.71
2018-06-24T20:05:48.512Z,14.69
2018-06-24T20:08:16.837Z,14.72
2018-06-24T20:10:45.227Z,14.70
2018-06-24T20:13:13.621Z,14.70
2018-06-24T20:15:41.974Z,14.68
2018-06-24T20:18:10.355Z,14.70
2018-06-24T20:20:38.886Z,14.74
2018-06-24T20:23:07.243Z,14.71
2018-06-24T20:25:35.799Z,14.70
2018-06-24T20:28:04.458Z,14.71
2018-06-24T20:30:32.887Z,14.71
2018-06-24T20:33:01.310Z,14.71
2018-06-24T20:35:30.372Z,14.71
2018-06-24T20:37:58.753Z,14.69
2018-06-24T20:40:27.099Z,14.70
2018-06-24T20:42:55.473Z,14.71
2018-06-24T20:45:23.850Z,14.70
2018-06-24T20:47:52.812Z,14.72
2018-06-24T20:50:21.242Z,14.70
2018-06-24T20:52:49.578Z,14.71
2018-06-24T20:55:17.988Z,14.70
2018-06-24T20:57:46.456Z,14.75
2018-06-24T21:00:14.885Z,14.71
2018-06-24T21:02:43.261Z,14.70
2018-06-24T21:05:11.640Z,14.69
2018-06-24T21:07:40.765Z,14.70
2018-06-24T21:10:09.136Z,14.70
2018-06-24T21:12:38.723Z,14.69
2018-06-24T21:15:07.132Z,14.73
2018-06-24T21:17:35.552Z,14.72
2018-06-24T21:20:03.962Z,14.76
2018-06-24T21:22:32.312Z,14.74
2018-06-24T21:25:00.693Z,14.76
2018-06-24T21:27:29.067Z,14.73
2018-06-24T21:29:57.499Z,14.73
2018-06-24T21:32:26.065Z,14.75
2018-06-24T21:34:54.564Z,14.73
2018-06-24T21:37:22.956Z,14.73
2018-06-24T21:39:51.381Z,14.76
2018-06-24T21:42:19.748Z,14.79
2018-06-24T21:44:48.448Z,14.76
2018-06-24T21:47:16.807Z,14.77
2018-06-24T21:49:45.151Z,14.75
2018-06-24T21:52:13.507Z,14.76
2018-06-24T21:54:41.851Z,14.75
2018-06-24T21:57:10.198Z,14.78
2018-06-24T21:59:38.558Z,14.79
2018-06-24T22:02:07.358Z,14.79
2018-06-24T22:04:36.010Z,14.78
2018-06-24T22:07:04.533Z,14.80
2018-06-24T22:09:32.943Z,14.79
2018-06-24T22:12:01.288Z,14.78
2018-06-24T22:14:29.770Z,14.80
2018-06-24T22:16:58.422Z,14.77
2018-06-24T22:19:26.983Z,14.78
2018-06-24T22:21:55.359Z,14.77
2018-06-24T22:24:24.239Z,14.78
2018-06-24T22:26:52.632Z,14.76
2018-06-24T22:29:21.007Z,14.77
2018-06-24T22:31:49.372Z,14.76
2018-06-24T22:34:17.757Z,14.76
2018-06-24T22:36:46.164Z,14.77
2018-06-24T22:39:14.516Z,14.75
2018-06-24T22:41:43.307Z,14.75
2018-06-24T22:44:11.744Z,14.75
2018-06-24T22:46:40.094Z,14.71
2018-06-24T22:49:08.432Z,14.71
2018-06-24T22:51:37.295Z,14.68
2018-06-24T22:54:05.915Z,14.65
2018-06-24T22:56:34.301Z,14.65
2018-06-24T22:59:14.012Z,14.63
2018-06-24T23:01:42.387Z,14.61
2018-06-24T23:04:10.767Z,14.60
2018-06-24T23:06:39.107Z,14.59
2018-06-24T23:09:08.554Z,14.59
2018-06-24T23:11:37.025Z,14.55
2018-06-24T23:14:05.439Z,14.53
2018-06-24T23:16:33.891Z,14.52
2018-06-24T23:19:02.268Z,14.60
2018-06-24T23:21:30.624Z,14.52
2018-06-24T23:23:58.972Z,14.50
2018-06-24T23:26:27.544Z,14.48
2018-06-24T23:28:55.962Z,14.46
2018-06-24T23:31:24.309Z,14.45
2018-06-24T23:33:52.636Z,14.43
2018-06-24T23:36:20.959Z,14.41
2018-06-24T23:38:49.305Z,14.42
2018-06-24T23:41:17.652Z,14.42
2018-06-24T23:43:45.987Z,14.42
2018-06-24T23:46:14.307Z,14.42
2018-06-24T23:48:42.645Z,14.43
2018-06-24T23:51:10.995Z,14.42
2018-06-24T23:53:39.340Z,14.40
2018-06-24T23:56:07.676Z,14.39
2018-06-24T23:58:36.020Z,14.44
